Leighton Buzzard, United Kingdom
Current Conditions -  °F | °C
As of 9:20 AM on Saturday 25 Oct 2014 (Local Time) from EGTC Reporting Station
Few Clouds Few Clouds  
Wind Chill: 44°   Ceiling: Unl
Heat Index: 48°   Visibility: 6mi
Dew Point: 48°   Wind: 9mph
Humidity: 100%   Direction: 210°SSW
Pressure: 30.03"   Gusts: NA
Location:  51.92°N, 0.66°W
Report Text: EGTC 250820Z 21008KT 9999 FEW043 09/09 Q1017
Loading
Personal Weather Stations






























Interactive Weather Map
Tropical Storm Tracking
New forecast layout! Learn more

10-Day Weather Forecast

Advertisements
Track Severe Weather on mobile